Time;durP1;ratioP1;P1;durP2;ratioP2;P2;SDS_P1;SDS_P2;PMS_P1;PMS_P2;Temp;Humidity;BMP_temperature;BMP_pressure;BME280_temperature;BME280_humidity;BME280_pressure;Samples;Min_cycle;Max_cycle;Signal;HPM_P1;HPM_P2
2023/08/17 00:01:02;;;;;;;6.65;2.47;;;;;;;19.57;71.02;100074.03;10394456;28;20401;-59
2023/08/17 00:06:04;;;;;;;5.90;3.03;;;;;;;19.57;70.95;100077.53;10393239;28;20144;-59
2023/08/17 00:11:06;;;;;;;7.63;2.83;;;;;;;19.54;70.70;100088.44;10393667;28;20029;-59
2023/08/17 00:16:08;;;;;;;5.65;2.72;;;;;;;19.55;70.55;100095.41;10392099;28;20045;-59
2023/08/17 00:21:10;;;;;;;5.60;2.38;;;;;;;19.59;70.65;100098.59;10400359;28;20057;-59
2023/08/17 00:26:12;;;;;;;3.95;2.00;;;;;;;19.63;70.38;100105.28;10475593;28;20055;-58
2023/08/17 00:31:14;;;;;;;6.38;2.53;;;;;;;19.56;70.50;100106.88;10475227;28;20052;-59
2023/08/17 00:36:16;;;;;;;8.07;2.65;;;;;;;19.60;70.69;100100.28;10476227;28;20578;-58
2023/08/17 00:41:18;;;;;;;3.83;2.00;;;;;;;19.61;70.33;100094.81;10457448;28;20052;-58
2023/08/17 00:46:22;;;;;;;4.30;2.10;;;;;;;19.54;70.55;100100.88;10456703;28;20055;-58
2023/08/17 00:51:26;;;;;;;6.18;2.45;;;;;;;19.61;70.36;100109.91;10456869;28;20464;-58
2023/08/17 00:56:28;;;;;;;4.05;2.08;;;;;;;19.57;70.70;100109.38;10456654;28;20144;-58
2023/08/17 01:01:31;;;;;;;4.75;2.35;;;;;;;19.60;70.71;100108.25;10456807;28;20057;-58
2023/08/17 01:06:33;;;;;;;3.33;1.73;;;;;;;19.75;70.45;100099.66;10474291;28;20504;-58
2023/08/17 01:11:57;;;;;;;5.38;2.50;;;;;;;19.80;70.57;100100.06;10498264;28;20048;-58
2023/08/17 01:17:10;;;;;;;5.60;2.33;;;;;;;19.82;70.42;100090.19;10497627;28;20108;-59
2023/08/17 01:22:17;;;;;;;4.28;2.10;;;;;;;19.71;70.32;100094.78;10464177;28;20443;-59
2023/08/17 01:27:19;;;;;;;4.45;2.42;;;;;;;19.71;70.51;100090.31;10482692;28;20143;-59
2023/08/17 01:32:35;;;;;;;6.95;2.30;;;;;;;19.74;70.39;100083.88;10480113;28;20135;-58
2023/08/17 01:37:40;;;;;;;8.38;2.20;;;;;;;19.60;70.30;100076.41;10481880;28;20041;-58
2023/08/17 01:42:43;;;;;;;4.38;2.22;;;;;;;19.54;70.64;100067.22;10481651;28;20165;-58
2023/08/17 01:47:45;;;;;;;4.15;2.20;;;;;;;19.57;70.54;100056.31;10481544;28;20084;-58
2023/08/17 01:52:50;;;;;;;4.28;2.22;;;;;;;19.72;70.60;100056.66;10481268;28;20060;-58
2023/08/17 01:57:52;;;;;;;6.05;2.97;;;;;;;19.71;70.14;100063.78;10480997;28;20105;-59
2023/08/17 02:02:54;;;;;;;6.35;2.22;;;;;;;19.78;70.35;100069.34;10462894;28;20120;-59
2023/08/17 02:07:56;;;;;;;4.57;2.10;;;;;;;19.79;70.11;100060.38;10495935;28;20044;-59
2023/08/17 02:12:58;;;;;;;4.55;2.45;;;;;;;19.85;70.05;100060.66;10445814;28;20051;-59
2023/08/17 02:18:17;;;;;;;6.65;2.50;;;;;;;19.69;70.35;100056.94;10481140;28;20246;-59
2023/08/17 02:23:19;;;;;;;9.35;2.50;;;;;;;19.58;70.64;100049.19;10461908;28;20161;-59
2023/08/17 02:28:21;;;;;;;6.13;2.30;;;;;;;19.64;70.43;100049.44;10479658;28;20056;-59
2023/08/17 02:33:24;;;;;;;6.28;2.40;;;;;;;19.73;70.41;100034.44;10495343;28;20378;-59
2023/08/17 02:38:26;;;;;;;4.10;2.00;;;;;;;19.70;70.43;100048.00;10479129;28;20054;-59
2023/08/17 02:43:28;;;;;;;6.53;2.00;;;;;;;19.66;70.71;100036.03;10479281;28;20127;-59
2023/08/17 02:48:30;;;;;;;5.25;2.20;;;;;;;19.62;70.74;100024.88;10478273;28;20074;-59
2023/08/17 02:53:34;;;;;;;4.05;2.05;;;;;;;19.70;70.71;100024.97;10479296;28;20401;-59
2023/08/17 02:58:36;;;;;;;3.80;1.90;;;;;;;19.69;70.19;100019.78;10478587;28;20072;-59
2023/08/17 03:03:38;;;;;;;6.13;2.15;;;;;;;19.65;70.61;100029.03;10478000;28;20058;-59
2023/08/17 03:08:40;;;;;;;5.15;1.75;;;;;;;19.59;70.53;100024.31;10477916;28;20413;-59
2023/08/17 03:13:42;;;;;;;5.22;2.25;;;;;;;19.55;70.43;100021.13;10478176;28;20040;-59
2023/08/17 03:18:44;;;;;;;5.35;2.08;;;;;;;19.48;70.54;100025.34;10459193;28;20064;-59
2023/08/17 03:23:48;;;;;;;7.93;2.10;;;;;;;19.37;70.80;100029.03;10443096;28;20283;-59
2023/08/17 03:28:50;;;;;;;6.25;2.03;;;;;;;19.41;70.68;100019.78;10476463;28;20566;-59
2023/08/17 03:33:55;;;;;;;4.65;1.83;;;;;;;19.42;70.67;100032.06;10493032;28;20037;-59
2023/08/17 03:38:57;;;;;;;3.78;1.75;;;;;;;19.25;70.85;100032.84;10459450;28;20098;-58
2023/08/17 03:44:00;;;;;;;4.13;1.98;;;;;;;19.24;71.15;100032.94;10492094;28;20527;-58
2023/08/17 03:49:02;;;;;;;4.07;1.92;;;;;;;19.25;71.10;100029.34;10474745;28;20048;-58
2023/08/17 03:54:04;;;;;;;4.15;2.20;;;;;;;19.38;70.97;100035.97;10474372;28;20144;-58
2023/08/17 03:59:06;;;;;;;4.28;2.40;;;;;;;19.42;70.39;100041.81;10475144;28;20046;-59
2023/08/17 04:04:08;;;;;;;3.50;1.92;;;;;;;19.44;70.43;100035.41;10475691;28;20062;-58
2023/08/17 04:09:10;;;;;;;3.60;1.67;;;;;;;19.35;70.66;100035.44;10476175;28;20061;-59
2023/08/17 04:14:13;;;;;;;3.45;1.55;;;;;;;19.26;71.11;100041.59;10491234;28;20114;-58
2023/08/17 04:19:15;;;;;;;2.72;1.63;;;;;;;19.31;71.00;100055.28;10457997;28;20318;-59
2023/08/17 04:24:17;;;;;;;3.08;1.67;;;;;;;19.26;71.14;100054.84;10432961;28;20044;-60
2023/08/17 04:29:19;;;;;;;6.88;1.90;;;;;;;19.35;71.03;100067.28;10434388;28;20425;-58
2023/08/17 04:34:22;;;;;;;4.10;1.90;;;;;;;19.24;70.86;100076.22;10432867;28;20067;-58
2023/08/17 04:39:24;;;;;;;5.80;1.92;;;;;;;19.28;70.95;100079.41;10434028;28;20286;-58
2023/08/17 04:44:26;;;;;;;3.05;1.60;;;;;;;19.28;70.84;100071.47;10456512;28;20037;-58
2023/08/17 04:49:28;;;;;;;6.72;2.13;;;;;;;19.33;70.88;100080.69;10442392;28;20500;-58
2023/08/17 04:54:30;;;;;;;5.20;1.70;;;;;;;19.36;70.86;100080.38;10442628;28;20493;-58
2023/08/17 04:59:32;;;;;;;2.58;1.30;;;;;;;19.39;70.71;100066.00;10440307;28;20139;-58
2023/08/17 05:04:35;;;;;;;3.58;1.60;;;;;;;19.40;70.42;100070.31;10439874;28;20451;-58
2023/08/17 05:09:37;;;;;;;4.13;1.63;;;;;;;19.38;70.12;100065.16;10439504;28;20123;-59
2023/08/17 05:14:41;;;;;;;4.65;1.70;;;;;;;19.42;70.09;100076.31;10417521;28;20053;-59
2023/08/17 05:19:43;;;;;;;2.72;1.40;;;;;;;19.46;70.28;100077.69;10438056;28;20040;-59
2023/08/17 05:24:45;;;;;;;3.85;1.80;;;;;;;19.48;69.84;100087.19;10474020;28;20049;-59
2023/08/17 05:29:47;;;;;;;3.10;1.50;;;;;;;19.53;70.14;100084.09;10481614;28;20045;-59
2023/08/17 05:34:49;;;;;;;4.93;1.70;;;;;;;19.63;70.06;100089.38;10494842;28;20044;-59
2023/08/17 05:39:51;;;;;;;2.63;1.50;;;;;;;19.63;69.80;100099.97;10462619;28;20047;-59
2023/08/17 05:44:53;;;;;;;3.65;1.73;;;;;;;19.73;69.38;100095.47;10478339;28;20094;-60
2023/08/17 05:49:56;;;;;;;3.05;1.80;;;;;;;19.79;69.03;100098.38;10462732;28;20041;-58
2023/08/17 05:54:58;;;;;;;2.92;1.48;;;;;;;19.88;68.87;100099.34;10430563;28;20543;-60
2023/08/17 06:00:00;;;;;;;5.00;1.67;;;;;;;19.97;68.82;100087.88;10480916;28;20121;-60
2023/08/17 06:05:13;;;;;;;2.30;1.50;;;;;;;20.04;68.67;100102.22;10480965;28;20139;-59
2023/08/17 06:10:15;;;;;;;2.67;1.50;;;;;;;20.10;68.86;100096.31;10480768;28;20508;-59
2023/08/17 06:15:17;;;;;;;3.35;1.63;;;;;;;20.14;68.75;100098.53;10480373;28;20577;-60
2023/08/17 06:20:19;;;;;;;2.40;1.45;;;;;;;20.10;68.63;100102.47;10480374;28;20055;-60
2023/08/17 06:25:21;;;;;;;3.10;1.55;;;;;;;20.04;69.03;100107.53;10461395;28;20189;-60
2023/08/17 06:30:23;;;;;;;3.55;1.50;;;;;;;20.17;68.75;100116.00;10480277;28;20139;-60
2023/08/17 06:35:26;;;;;;;2.67;1.45;;;;;;;20.13;68.48;100114.63;10461518;28;20060;-61
2023/08/17 06:40:28;;;;;;;2.42;1.30;;;;;;;20.16;68.58;100116.97;10479242;28;20045;-58
2023/08/17 06:45:34;;;;;;;2.60;1.50;;;;;;;20.25;68.66;100119.56;10478502;28;20142;-59
2023/08/17 06:50:36;;;;;;;1.73;1.20;;;;;;;20.31;68.03;100110.19;10461225;28;20051;-59
2023/08/17 06:55:38;;;;;;;2.08;1.42;;;;;;;20.41;68.23;100100.31;10478680;28;20413;-59
2023/08/17 07:00:41;;;;;;;2.70;1.75;;;;;;;20.54;67.83;100102.63;10460326;28;20052;-59
2023/08/17 07:05:43;;;;;;;5.38;1.83;;;;;;;20.60;67.61;100113.50;10492644;28;20060;-59
2023/08/17 07:10:45;;;;;;;2.58;1.23;;;;;;;20.66;67.68;100112.06;10478167;28;20185;-59
2023/08/17 07:15:47;;;;;;;2.40;1.10;;;;;;;20.77;67.11;100104.69;10478619;28;20151;-59
2023/08/17 07:20:49;;;;;;;2.83;1.30;;;;;;;20.87;66.69;100112.59;10459427;28;20054;-59
2023/08/17 07:25:51;;;;;;;3.80;1.30;;;;;;;21.00;66.43;100116.53;10477767;28;20059;-59
2023/08/17 07:30:53;;;;;;;2.92;1.40;;;;;;;21.08;66.06;100127.25;10477657;28;20040;-59
2023/08/17 07:35:55;;;;;;;2.08;1.25;;;;;;;21.04;66.17;100123.22;10477100;28;20056;-59
2023/08/17 07:40:57;;;;;;;2.83;1.75;;;;;;;21.06;65.80;100123.06;10477097;28;21237;-60
2023/08/17 07:45:59;;;;;;;2.05;1.20;;;;;;;21.16;65.70;100122.97;10459077;28;20048;-59
2023/08/17 07:51:01;;;;;;;2.42;1.52;;;;;;;21.24;65.25;100118.53;10458802;28;20036;-59
2023/08/17 07:56:03;;;;;;;3.97;1.20;;;;;;;21.39;64.60;100118.84;10458462;28;20052;-59
2023/08/17 08:01:05;;;;;;;2.00;1.42;;;;;;;21.52;64.38;100116.59;10457731;28;20047;-59
2023/08/17 08:06:07;;;;;;;1.70;1.10;;;;;;;21.62;64.08;100120.81;10475815;28;20048;-59
2023/08/17 08:11:09;;;;;;;1.95;1.33;;;;;;;21.74;63.68;100116.91;10476617;28;20062;-60
2023/08/17 08:16:12;;;;;;;1.95;1.17;;;;;;;21.94;63.26;100125.50;10475783;28;20135;-59
2023/08/17 08:21:14;;;;;;;4.55;1.48;;;;;;;21.82;63.13;100118.78;10476047;28;20061;-60
2023/08/17 08:26:15;;;;;;;2.42;1.10;;;;;;;21.79;62.71;100116.44;10476276;28;20048;-60
2023/08/17 08:31:17;;;;;;;1.58;1.20;;;;;;;21.87;62.57;100119.13;10457887;28;20048;-60
2023/08/17 08:36:19;;;;;;;3.92;1.70;;;;;;;21.87;62.60;100114.66;10474882;28;20076;-59
2023/08/17 08:41:24;;;;;;;2.25;1.40;;;;;;;21.82;62.57;100113.47;10457126;28;20127;-59
2023/08/17 08:46:29;;;;;;;2.45;1.25;;;;;;;21.64;62.64;100121.50;10475230;28;20056;-60
2023/08/17 08:51:37;;;;;;;2.35;1.30;;;;;;;21.64;63.04;100126.00;10475543;28;20089;-60
2023/08/17 08:56:42;;;;;;;2.45;1.50;;;;;;;21.44;62.85;100128.03;10475753;28;20128;-59
2023/08/17 09:01:50;;;;;;;3.40;1.27;;;;;;;21.22;62.94;100127.66;10475147;28;20045;-60
2023/08/17 09:06:54;;;;;;;2.67;1.40;;;;;;;21.27;62.62;100130.72;10474896;28;20502;-60
2023/08/17 09:11:57;;;;;;;2.53;1.23;;;;;;;21.20;62.66;100132.31;10457103;28;20404;-59
2023/08/17 09:16:59;;;;;;;4.07;1.63;;;;;;;21.29;62.57;100128.72;10456074;28;20562;-59
2023/08/17 09:22:01;;;;;;;2.53;1.50;;;;;;;21.20;62.81;100124.31;10456383;28;20488;-60
2023/08/17 09:27:04;;;;;;;2.83;1.50;;;;;;;21.40;62.17;100115.19;10456936;28;20052;-59
2023/08/17 09:32:15;;;;;;;2.20;1.30;;;;;;;21.64;61.67;100116.19;10482068;28;20036;-59
2023/08/17 09:37:17;;;;;;;3.35;1.70;;;;;;;21.76;61.09;100108.78;10481369;28;20540;-58
2023/08/17 09:42:21;;;;;;;2.80;1.70;;;;;;;21.83;61.25;100118.63;10481883;28;20121;-59
2023/08/17 09:47:23;;;;;;;2.83;1.25;;;;;;;22.01;61.06;100120.34;10481398;28;20078;-58
2023/08/17 09:52:25;;;;;;;2.58;1.35;;;;;;;22.28;60.13;100112.16;10463201;28;20040;-58
2023/08/17 09:57:28;;;;;;;2.15;1.35;;;;;;;22.51;59.69;100100.75;10495565;28;20036;-59
2023/08/17 10:02:31;;;;;;;4.72;1.30;;;;;;;22.67;59.07;100097.28;10481452;28;20044;-59
2023/08/17 10:07:36;;;;;;;1.55;1.10;;;;;;;22.61;58.82;100101.44;10480444;28;20040;-59
2023/08/17 10:12:54;;;;;;;2.50;1.40;;;;;;;22.89;57.64;100106.47;10481078;28;20154;-59
2023/08/17 10:18:03;;;;;;;1.58;1.00;;;;;;;23.28;57.58;100092.28;10462080;28;20050;-60
2023/08/17 10:23:17;;;;;;;2.45;1.55;;;;;;;23.76;56.79;100094.03;10480066;28;20044;-59
2023/08/17 10:28:24;;;;;;;2.30;1.30;;;;;;;23.81;55.91;100107.72;10479783;28;20087;-59
2023/08/17 10:33:27;;;;;;;2.08;1.20;;;;;;;24.07;55.66;100110.16;10479822;28;20139;-59
2023/08/17 10:38:29;;;;;;;2.70;1.30;;;;;;;23.77;55.29;100097.53;10478969;28;20469;-59
2023/08/17 10:43:34;;;;;;;1.77;1.20;;;;;;;24.22;54.24;100095.91;10476578;28;20416;-59
2023/08/17 10:48:36;;;;;;;1.88;1.20;;;;;;;24.90;53.83;100092.44;10479878;28;20106;-59
2023/08/17 10:53:45;;;;;;;1.98;1.17;;;;;;;25.26;52.81;100098.84;10479135;28;20044;-59
2023/08/17 10:58:51;;;;;;;3.13;1.37;;;;;;;25.10;52.48;100093.63;10478475;28;20036;-59
2023/08/17 11:04:15;;;;;;;2.58;1.10;;;;;;;25.26;52.30;100090.81;10493913;28;20518;-59
2023/08/17 11:09:17;;;;;;;2.70;1.10;;;;;;;25.78;52.00;100099.66;10478074;28;20048;-59
2023/08/17 11:14:20;;;;;;;1.73;1.00;;;;;;;26.32;51.23;100084.06;10459267;28;20481;-59
2023/08/17 11:19:22;;;;;;;1.63;1.13;;;;;;;26.42;50.62;100084.59;10478211;28;20056;-59
2023/08/17 11:24:24;;;;;;;2.08;1.33;;;;;;;25.64;51.07;100087.09;10477563;28;20473;-59
2023/08/17 11:29:32;;;;;;;2.25;1.13;;;;;;;24.84;52.11;100088.66;10459098;28;20044;-59
2023/08/17 11:34:35;;;;;;;1.38;1.00;;;;;;;24.48;52.76;100078.69;10478007;28;20049;-60
2023/08/17 11:39:38;;;;;;;2.58;1.10;;;;;;;24.15;53.16;100086.91;10458642;28;20125;-59
2023/08/17 11:44:40;;;;;;;2.08;1.30;;;;;;;24.34;53.09;100093.66;10476039;28;20132;-59
2023/08/17 11:49:42;;;;;;;2.28;1.02;;;;;;;24.72;52.51;100089.25;10476572;28;20052;-59
2023/08/17 11:54:44;;;;;;;2.00;1.10;;;;;;;25.00;52.78;100087.66;10476345;28;20507;-59
2023/08/17 11:59:46;;;;;;;2.22;1.00;;;;;;;25.14;51.93;100089.59;10476472;28;20492;-59
2023/08/17 12:04:49;;;;;;;2.65;1.13;;;;;;;25.20;52.69;100088.03;10458142;28;20076;-59
2023/08/17 12:09:52;;;;;;;1.52;1.00;;;;;;;25.18;52.24;100085.53;10476538;28;20140;-60
2023/08/17 12:14:55;;;;;;;1.65;0.93;;;;;;;25.53;52.57;100082.19;10476024;28;20028;-59
2023/08/17 12:19:58;;;;;;;1.85;1.10;;;;;;;25.82;51.88;100084.03;10457476;28;20033;-59
2023/08/17 12:25:01;;;;;;;8.27;1.90;;;;;;;25.41;52.06;100072.09;10475551;28;20056;-59
2023/08/17 12:30:03;;;;;;;1.80;1.30;;;;;;;25.04;52.60;100076.44;10476411;28;20040;-59
2023/08/17 12:35:06;;;;;;;2.38;1.20;;;;;;;25.18;52.51;100069.47;10475306;28;20254;-59
2023/08/17 12:40:09;;;;;;;1.92;1.02;;;;;;;24.94;51.91;100070.50;10475795;28;20095;-58
2023/08/17 12:45:12;;;;;;;1.70;0.95;;;;;;;24.99;52.88;100060.09;10475377;28;20045;-58
2023/08/17 12:50:14;;;;;;;3.67;1.20;;;;;;;25.33;52.68;100062.28;10475113;28;20523;-59
2023/08/17 12:55:16;;;;;;;1.23;1.00;;;;;;;25.05;52.47;100054.03;10489453;28;20045;-58
2023/08/17 13:00:18;;;;;;;1.45;1.00;;;;;;;24.90;52.91;100063.00;10456640;28;20052;-58
2023/08/17 13:05:20;;;;;;;1.27;1.02;;;;;;;24.86;52.67;100062.56;10482598;28;20048;-58
2023/08/17 13:10:22;;;;;;;2.55;1.10;;;;;;;24.93;52.89;100051.97;10483442;28;20052;-59
2023/08/17 13:15:25;;;;;;;1.40;0.93;;;;;;;25.14;52.54;100053.94;10482251;28;20331;-58
2023/08/17 13:20:27;;;;;;;1.38;1.00;;;;;;;25.05;52.51;100042.47;10482182;28;20048;-59
2023/08/17 13:25:28;;;;;;;1.23;0.95;;;;;;;25.39;51.97;100031.28;10481781;28;20139;-59
2023/08/17 13:30:31;;;;;;;1.27;1.00;;;;;;;25.72;51.80;100027.22;10482064;28;20052;-59
2023/08/17 13:35:34;;;;;;;1.55;1.10;;;;;;;25.57;51.65;100029.91;10482098;28;20145;-59
2023/08/17 13:40:38;;;;;;;1.50;1.10;;;;;;;25.46;51.50;100017.00;10482184;28;20072;-60
2023/08/17 13:45:40;;;;;;;1.65;1.15;;;;;;;25.25;51.51;100014.19;10481671;28;20111;-60
2023/08/17 13:50:42;;;;;;;2.05;1.20;;;;;;;25.38;51.63;100003.69;10481255;28;20072;-60
2023/08/17 13:55:44;;;;;;;2.20;1.00;;;;;;;25.53;50.89;100001.81;10480852;28;20063;-59
2023/08/17 14:00:46;;;;;;;1.40;1.10;;;;;;;25.64;50.52;99987.13;10481074;28;20052;-60
2023/08/17 14:05:48;;;;;;;2.13;1.20;;;;;;;25.72;50.81;99982.50;10462216;28;20041;-60
2023/08/17 14:10:50;;;;;;;3.33;0.90;;;;;;;25.80;51.26;99984.25;10480650;28;20045;-60
2023/08/17 14:15:55;;;;;;;2.53;1.10;;;;;;;26.13;50.98;99984.66;10494486;28;20057;-60
2023/08/17 14:20:58;;;;;;;2.00;1.10;;;;;;;25.69;51.53;99977.50;10480168;28;20138;-60
2023/08/17 14:26:00;;;;;;;4.63;1.50;;;;;;;25.41;51.85;99973.03;10480066;28;20048;-60
2023/08/17 14:31:02;;;;;;;2.22;1.00;;;;;;;25.43;51.62;99966.47;10480218;28;20403;-60
2023/08/17 14:36:04;;;;;;;4.50;1.23;;;;;;;25.78;51.41;99952.28;10461517;28;20127;-60
2023/08/17 14:41:07;;;;;;;1.88;1.13;;;;;;;26.16;50.65;99958.28;10479762;28;20033;-60
2023/08/17 14:46:09;;;;;;;1.73;1.08;;;;;;;26.26;50.29;99936.53;10479381;28;20568;-59
2023/08/17 14:51:14;;;;;;;2.33;1.38;;;;;;;26.13;50.90;99936.41;10478782;28;20044;-60
2023/08/17 14:56:16;;;;;;;2.13;1.10;;;;;;;26.21;49.83;99918.34;10479000;28;20052;-60
2023/08/17 15:01:18;;;;;;;1.48;1.10;;;;;;;26.07;50.49;99913.03;10478562;28;20129;-60
2023/08/17 15:06:24;;;;;;;1.90;1.10;;;;;;;26.14;50.06;99905.91;10478521;28;20132;-60
2023/08/17 15:11:36;;;;;;;1.58;1.00;;;;;;;26.35;49.82;99895.13;10478146;28;20053;-60
2023/08/17 15:16:38;;;;;;;1.27;1.00;;;;;;;26.25;49.17;99882.06;10477878;28;20495;-60
2023/08/17 15:21:40;;;;;;;1.65;1.10;;;;;;;26.29;49.46;99879.81;10492226;28;20496;-60
2023/08/17 15:26:42;;;;;;;2.13;1.08;;;;;;;26.31;49.90;99867.06;10476970;28;20135;-60
2023/08/17 15:31:44;;;;;;;3.40;0.93;;;;;;;26.21;49.40;99866.56;10477334;28;20074;-59
2023/08/17 15:36:46;;;;;;;3.03;1.35;;;;;;;26.01;49.88;99869.06;10458727;28;20067;-59
2023/08/17 15:41:48;;;;;;;4.10;1.65;;;;;;;25.87;49.99;99870.75;10477103;28;20143;-59
2023/08/17 15:46:50;;;;;;;1.73;1.00;;;;;;;25.92;50.07;99870.19;10473423;28;20326;-59
2023/08/17 15:51:56;;;;;;;1.83;1.10;;;;;;;26.00;50.07;99861.25;10472316;28;20041;-59
2023/08/17 15:56:58;;;;;;;3.13;1.10;;;;;;;26.14;50.14;99855.78;10474432;28;20040;-59
2023/08/17 16:02:00;;;;;;;1.63;1.10;;;;;;;26.19;49.49;99844.47;10474757;28;20515;-59
2023/08/17 16:07:02;;;;;;;1.70;1.00;;;;;;;26.34;49.56;99842.56;10474454;28;20044;-59
2023/08/17 16:12:05;;;;;;;1.40;1.00;;;;;;;26.25;49.46;99841.84;10475643;28;20048;-59
2023/08/17 16:17:07;;;;;;;0.88;0.85;;;;;;;26.46;49.08;99851.72;10475959;28;20049;-60
2023/08/17 16:22:09;;;;;;;2.35;1.08;;;;;;;26.55;48.67;99839.78;10475221;28;20219;-59
2023/08/17 16:27:11;;;;;;;1.67;0.88;;;;;;;26.55;48.98;99858.56;10474439;28;20231;-59
2023/08/17 16:32:13;;;;;;;2.63;1.00;;;;;;;26.56;48.81;99857.59;10475449;28;20045;-59
2023/08/17 16:37:16;;;;;;;1.67;1.00;;;;;;;26.73;48.44;99868.84;10480336;28;20056;-59
2023/08/17 16:42:18;;;;;;;1.67;1.10;;;;;;;26.80;47.96;99864.34;10489748;28;20133;-59
2023/08/17 16:47:21;;;;;;;1.95;1.00;;;;;;;26.83;48.25;99869.31;10489578;28;20037;-59
2023/08/17 16:52:23;;;;;;;1.40;1.02;;;;;;;26.76;48.67;99874.63;10470957;28;20416;-59
2023/08/17 16:57:25;;;;;;;1.02;0.90;;;;;;;26.74;49.29;99871.31;10489193;28;20051;-59
2023/08/17 17:02:27;;;;;;;3.00;1.05;;;;;;;26.67;49.38;99871.28;10488684;28;20048;-59
2023/08/17 17:07:29;;;;;;;1.67;1.13;;;;;;;26.59;49.10;99871.44;10488624;28;20045;-59
2023/08/17 17:12:31;;;;;;;1.98;1.20;;;;;;;26.60;49.27;99877.63;10489125;28;20044;-57
2023/08/17 17:17:34;;;;;;;1.60;1.00;;;;;;;26.53;49.82;99887.44;10488307;28;20064;-59
2023/08/17 17:22:36;;;;;;;2.03;1.00;;;;;;;26.37;50.28;99887.72;10488370;28;20056;-60
2023/08/17 17:27:39;;;;;;;3.28;1.10;;;;;;;26.26;50.63;99893.63;10488458;28;20732;-60
2023/08/17 17:32:41;;;;;;;1.25;0.98;;;;;;;26.17;50.89;99887.56;10488389;28;20037;-59
2023/08/17 17:37:43;;;;;;;5.15;1.40;;;;;;;25.99;50.98;99889.03;10488066;28;20456;-59
2023/08/17 17:42:45;;;;;;;4.05;1.10;;;;;;;25.85;51.89;99896.91;10468395;28;20131;-59
2023/08/17 17:47:47;;;;;;;1.83;1.40;;;;;;;25.71;53.12;99899.66;10485336;28;20125;-59
2023/08/17 17:52:50;;;;;;;1.20;1.10;;;;;;;25.54;53.54;99907.09;10446297;28;20117;-59
2023/08/17 17:57:51;;;;;;;1.75;1.38;;;;;;;25.31;53.76;99906.34;10446823;28;20047;-59
2023/08/17 18:02:54;;;;;;;4.18;1.50;;;;;;;25.12;54.52;99906.94;10480795;28;20519;-59
2023/08/17 18:07:56;;;;;;;2.65;1.42;;;;;;;24.95;55.02;99913.47;10480862;28;20064;-59
2023/08/17 18:12:58;;;;;;;1.50;1.00;;;;;;;24.74;55.99;99918.72;10481037;28;20037;-59
2023/08/17 18:18:01;;;;;;;3.17;1.42;;;;;;;24.61;56.29;99907.78;10495339;28;20090;-59
2023/08/17 18:23:04;;;;;;;3.00;1.70;;;;;;;24.33;57.12;99899.50;10480435;28;20102;-60
2023/08/17 18:28:07;;;;;;;4.35;1.40;;;;;;;23.90;57.69;99898.31;10480295;28;20049;-60
2023/08/17 18:33:09;;;;;;;2.28;1.10;;;;;;;23.57;58.51;99904.03;10480195;28;20048;-59
2023/08/17 18:38:11;;;;;;;1.92;1.13;;;;;;;23.43;58.86;99905.63;10462000;28;20048;-59
2023/08/17 18:43:13;;;;;;;2.38;1.35;;;;;;;23.23;59.47;99907.00;10479513;28;20053;-59
2023/08/17 18:48:16;;;;;;;2.78;1.30;;;;;;;22.95;59.98;99914.59;10479104;28;20094;-59
2023/08/17 18:53:18;;;;;;;2.83;1.30;;;;;;;22.78;60.57;99912.97;10479336;28;20140;-59
2023/08/17 18:58:21;;;;;;;1.25;1.13;;;;;;;22.60;61.17;99930.97;10479004;28;20052;-60
2023/08/17 19:03:23;;;;;;;1.90;1.17;;;;;;;22.39;61.63;99934.13;10478807;28;20415;-60
2023/08/17 19:08:25;;;;;;;1.52;1.10;;;;;;;22.24;62.26;99949.13;10477970;28;20104;-60
2023/08/17 19:13:27;;;;;;;2.22;1.10;;;;;;;22.12;62.75;99961.13;10461080;28;20098;-59
2023/08/17 19:18:29;;;;;;;1.98;1.20;;;;;;;22.04;62.95;99976.25;10460016;28;20123;-59
2023/08/17 19:23:31;;;;;;;3.40;1.48;;;;;;;21.95;63.24;99972.69;10459009;28;20052;-59
2023/08/17 19:28:33;;;;;;;1.85;1.10;;;;;;;21.48;63.84;99977.69;10477181;28;20040;-59
2023/08/17 19:33:35;;;;;;;2.90;1.50;;;;;;;21.52;64.53;99989.69;10477819;28;20139;-59
2023/08/17 19:38:37;;;;;;;2.20;1.25;;;;;;;21.60;64.18;99988.88;10470251;28;20634;-59
2023/08/17 19:43:39;;;;;;;2.20;1.20;;;;;;;21.59;64.58;99997.88;10459514;28;20381;-59
2023/08/17 19:48:42;;;;;;;2.10;1.20;;;;;;;21.58;64.90;99997.03;10476373;28;20135;-60
2023/08/17 19:53:44;;;;;;;5.43;1.60;;;;;;;21.59;64.93;99997.88;10476861;28;20215;-60
2023/08/17 19:58:46;;;;;;;3.08;1.30;;;;;;;21.56;64.72;99990.19;10477016;28;20052;-59
2023/08/17 20:03:50;;;;;;;2.63;1.80;;;;;;;21.47;65.06;99992.03;10476268;28;20151;-60
2023/08/17 20:08:52;;;;;;;8.65;1.65;;;;;;;21.37;65.11;99993.97;10476366;28;20667;-59
2023/08/17 20:13:54;;;;;;;4.57;1.88;;;;;;;21.27;65.32;99987.91;10475873;28;20127;-59
2023/08/17 20:18:56;;;;;;;1.92;1.25;;;;;;;21.11;65.66;99981.66;10476767;28;20127;-59
2023/08/17 20:23:58;;;;;;;2.00;1.30;;;;;;;20.93;66.13;99985.19;10475667;28;20113;-59
2023/08/17 20:29:00;;;;;;;2.38;1.33;;;;;;;20.61;66.57;99977.00;10475470;28;20060;-60
2023/08/17 20:34:02;;;;;;;1.92;1.40;;;;;;;20.70;66.77;99984.00;10491199;28;20500;-60
2023/08/17 20:39:09;;;;;;;2.00;1.35;;;;;;;20.72;67.05;99987.34;10475440;28;20060;-60
2023/08/17 20:44:12;;;;;;;1.67;1.25;;;;;;;20.69;67.00;99993.00;10441597;28;20135;-58
2023/08/17 20:49:16;;;;;;;2.17;1.30;;;;;;;20.52;67.24;99985.84;10475489;28;20054;-58
2023/08/17 20:54:18;;;;;;;2.00;1.35;;;;;;;20.51;67.29;99993.97;10475235;28;20045;-58
2023/08/17 20:59:20;;;;;;;2.80;1.52;;;;;;;20.55;67.22;99992.69;10457096;28;20079;-58
2023/08/17 21:04:22;;;;;;;6.20;1.60;;;;;;;20.51;67.11;99994.81;10475052;28;20185;-58
2023/08/17 21:09:25;;;;;;;2.53;1.25;;;;;;;20.42;67.55;100000.22;10474725;28;20045;-58
2023/08/17 21:14:27;;;;;;;2.40;1.30;;;;;;;20.35;67.58;100002.63;10475149;28;20127;-58
2023/08/17 21:19:29;;;;;;;2.97;1.40;;;;;;;20.36;67.73;100006.94;10457228;28;20133;-58
2023/08/17 21:24:31;;;;;;;3.70;1.48;;;;;;;20.30;67.40;100004.91;10477052;28;20456;-58
2023/08/17 21:29:33;;;;;;;2.40;1.30;;;;;;;20.14;67.98;99997.63;10482571;28;20056;-58
2023/08/17 21:34:35;;;;;;;4.15;1.50;;;;;;;20.13;67.65;99995.13;10482367;28;20470;-58
2023/08/17 21:39:37;;;;;;;1.92;1.25;;;;;;;20.01;68.18;99991.84;10481684;28;20033;-59
2023/08/17 21:44:39;;;;;;;2.80;1.58;;;;;;;19.94;68.13;99989.94;10463232;28;20049;-59
2023/08/17 21:49:44;;;;;;;5.93;1.70;;;;;;;19.91;68.62;99985.75;10481520;28;20052;-59
2023/08/17 21:54:49;;;;;;;1.90;1.30;;;;;;;19.95;68.61;99988.97;10480853;28;20139;-59
2023/08/17 21:59:52;;;;;;;6.05;2.00;;;;;;;19.92;68.48;99981.28;10481078;28;20052;-59
2023/08/17 22:04:54;;;;;;;5.20;2.22;;;;;;;19.57;68.62;99978.53;10481581;28;20138;-59
2023/08/17 22:09:56;;;;;;;3.75;1.42;;;;;;;19.56;69.13;99992.78;10480879;28;20060;-59
2023/08/17 22:14:57;;;;;;;3.78;1.83;;;;;;;19.62;69.22;99981.59;10481142;28;20098;-58
2023/08/17 22:19:59;;;;;;;2.72;1.50;;;;;;;19.65;69.39;99983.91;10480553;28;20068;-59
2023/08/17 22:25:02;;;;;;;2.28;1.45;;;;;;;19.59;69.24;99989.81;10479725;28;20048;-59
2023/08/17 22:30:04;;;;;;;3.08;1.60;;;;;;;19.66;68.99;99986.44;10461935;28;20080;-59
2023/08/17 22:35:10;;;;;;;5.13;2.03;;;;;;;19.71;68.90;99968.25;10479190;28;20045;-59
2023/08/17 22:40:12;;;;;;;9.05;2.90;;;;;;;19.68;68.87;99976.53;10461802;28;20048;-59
2023/08/17 22:45:14;;;;;;;5.35;1.70;;;;;;;19.60;68.71;99964.97;10479737;28;20041;-59
2023/08/17 22:50:16;;;;;;;2.45;1.58;;;;;;;19.52;69.02;99972.84;10479426;28;20052;-59
2023/08/17 22:55:18;;;;;;;3.70;1.63;;;;;;;19.45;68.71;99968.13;10479093;28;20131;-60
2023/08/17 23:00:20;;;;;;;2.58;1.52;;;;;;;19.37;68.81;99972.47;10479360;28;20053;-60
2023/08/17 23:05:22;;;;;;;5.00;2.03;;;;;;;19.36;68.88;99969.00;10478734;28;20040;-59
2023/08/17 23:10:26;;;;;;;2.28;1.40;;;;;;;19.25;69.06;99961.25;10478261;28;20040;-59
2023/08/17 23:15:28;;;;;;;4.30;1.70;;;;;;;19.24;68.90;99964.00;10477988;28;20575;-59